RKPC/CJU METAR and TAF weather

Enter ICAO airport designator
Station Type Date Time Source
RKPC METAR 2019/02/16 17:00 UTC NOAA

RKPC 161700Z 33007KT 300V010 9999 BKN030 03/M03 Q1026 NOSIG


Station Type Date Time Source
RKPC Decoded METAR 2019/02/16 17:00 UTC NOAA

Cheju International Airport, Korea, South (RKPC) 33-30N 126-30E 28M
Feb 16, 2019 - 12:00 PM EST / 2019.02.16 1700 UTC
Wind: from the NNW (330 degrees) at 8 MPH (7 KT) (direction variable):0
Visibility: greater than 7 mile(s):0
Sky conditions: mostly cloudy
Temperature: 37 F (3 C)
Dew Point: 26 F (-3 C)
Relative Humidity: 64%
Pressure (altimeter): 30.30 in. Hg (1026 hPa)
ob: RKPC 161700Z 33007KT 300V010 9999 BKN030 03/M03 Q1026 NOSIG
cycle: 17

Station Type Date Time Source
RKPC TAF 2019/02/16 18:09 UTC NOAA

TAF TAF RKPC 161700Z 1618/1724 34008KT 9999 BKN030 TN03/1618Z TX06/1706Z TN03/1715Z
BECMG 1703/1704 SCT030 BKN120
BECMG 1714/1715 05005KT 6000
BECMG 1723/1724 BKN030 OVC100


Example: see airport list